sensor_id;sensor_type;location;lat;lon;timestamp;P1;durP1;ratioP1;P2;durP2;ratioP2
41903;SDS011;27586;51.124;4.182;2023-05-17T00:00:47;8.15;;;3.63;;
41903;SDS011;27586;51.124;4.182;2023-05-17T00:03:16;8.95;;;4.00;;
41903;SDS011;27586;51.124;4.182;2023-05-17T00:05:41;7.65;;;3.70;;
41903;SDS011;27586;51.124;4.182;2023-05-17T00:08:07;9.70;;;3.47;;
41903;SDS011;27586;51.124;4.182;2023-05-17T00:10:33;8.75;;;3.60;;
41903;SDS011;27586;51.124;4.182;2023-05-17T00:12:58;8.15;;;4.07;;
41903;SDS011;27586;51.124;4.182;2023-05-17T00:15:24;8.35;;;3.58;;
41903;SDS011;27586;51.124;4.182;2023-05-17T00:17:50;10.55;;;4.40;;
41903;SDS011;27586;51.124;4.182;2023-05-17T00:20:15;8.65;;;3.70;;
41903;SDS011;27586;51.124;4.182;2023-05-17T00:22:41;9.65;;;4.00;;
41903;SDS011;27586;51.124;4.182;2023-05-17T00:25:09;7.70;;;3.75;;
41903;SDS011;27586;51.124;4.182;2023-05-17T00:27:35;6.32;;;3.65;;
41903;SDS011;27586;51.124;4.182;2023-05-17T00:30:00;10.10;;;3.80;;
41903;SDS011;27586;51.124;4.182;2023-05-17T00:32:26;7.63;;;3.75;;
41903;SDS011;27586;51.124;4.182;2023-05-17T00:34:52;8.23;;;4.20;;
41903;SDS011;27586;51.124;4.182;2023-05-17T00:37:17;7.72;;;4.03;;
41903;SDS011;27586;51.124;4.182;2023-05-17T00:39:43;11.27;;;4.20;;
41903;SDS011;27586;51.124;4.182;2023-05-17T00:42:09;7.85;;;4.22;;
41903;SDS011;27586;51.124;4.182;2023-05-17T00:44:35;6.47;;;4.05;;
41903;SDS011;27586;51.124;4.182;2023-05-17T00:47:01;9.80;;;4.22;;
41903;SDS011;27586;51.124;4.182;2023-05-17T00:49:27;6.72;;;3.67;;
41903;SDS011;27586;51.124;4.182;2023-05-17T00:51:53;8.07;;;4.00;;
41903;SDS011;27586;51.124;4.182;2023-05-17T00:54:19;7.72;;;3.72;;
41903;SDS011;27586;51.124;4.182;2023-05-17T00:56:46;9.50;;;4.88;;
41903;SDS011;27586;51.124;4.182;2023-05-17T00:59:12;9.70;;;3.90;;
41903;SDS011;27586;51.124;4.182;2023-05-17T01:01:41;7.85;;;4.10;;
41903;SDS011;27586;51.124;4.182;2023-05-17T01:04:08;12.85;;;4.88;;
41903;SDS011;27586;51.124;4.182;2023-05-17T01:06:34;9.65;;;4.00;;
41903;SDS011;27586;51.124;4.182;2023-05-17T01:09:01;8.27;;;4.03;;
41903;SDS011;27586;51.124;4.182;2023-05-17T01:11:35;8.77;;;4.40;;
41903;SDS011;27586;51.124;4.182;2023-05-17T01:17:31;6.68;;;3.75;;
41903;SDS011;27586;51.124;4.182;2023-05-17T01:20:18;8.25;;;4.05;;
41903;SDS011;27586;51.124;4.182;2023-05-17T01:28:21;10.25;;;4.63;;
41903;SDS011;27586;51.124;4.182;2023-05-17T01:30:49;5.15;;;3.85;;
41903;SDS011;27586;51.124;4.182;2023-05-17T01:33:16;6.45;;;3.38;;
41903;SDS011;27586;51.124;4.182;2023-05-17T01:35:43;7.45;;;3.67;;
41903;SDS011;27586;51.124;4.182;2023-05-17T01:38:09;6.93;;;4.43;;
41903;SDS011;27586;51.124;4.182;2023-05-17T01:40:35;7.60;;;4.20;;
41903;SDS011;27586;51.124;4.182;2023-05-17T01:43:09;9.27;;;4.80;;
41903;SDS011;27586;51.124;4.182;2023-05-17T01:48:39;10.07;;;4.30;;
41903;SDS011;27586;51.124;4.182;2023-05-17T01:51:15;6.82;;;3.60;;
41903;SDS011;27586;51.124;4.182;2023-05-17T01:53:47;5.25;;;3.90;;
41903;SDS011;27586;51.124;4.182;2023-05-17T01:56:19;7.55;;;4.43;;
41903;SDS011;27586;51.124;4.182;2023-05-17T01:58:50;7.38;;;4.10;;
41903;SDS011;27586;51.124;4.182;2023-05-17T02:01:18;10.55;;;4.53;;
41903;SDS011;27586;51.124;4.182;2023-05-17T02:03:46;6.43;;;4.35;;
41903;SDS011;27586;51.124;4.182;2023-05-17T02:06:13;9.13;;;4.80;;
41903;SDS011;27586;51.124;4.182;2023-05-17T02:08:40;9.65;;;4.75;;
41903;SDS011;27586;51.124;4.182;2023-05-17T02:11:05;8.70;;;4.85;;
41903;SDS011;27586;51.124;4.182;2023-05-17T02:13:31;11.98;;;5.20;;
41903;SDS011;27586;51.124;4.182;2023-05-17T02:16:00;7.55;;;4.65;;
41903;SDS011;27586;51.124;4.182;2023-05-17T02:18:26;9.48;;;4.75;;
41903;SDS011;27586;51.124;4.182;2023-05-17T02:20:52;7.65;;;4.53;;
41903;SDS011;27586;51.124;4.182;2023-05-17T02:23:19;9.75;;;4.93;;
41903;SDS011;27586;51.124;4.182;2023-05-17T02:25:45;6.32;;;4.18;;
41903;SDS011;27586;51.124;4.182;2023-05-17T02:28:11;7.45;;;5.15;;
41903;SDS011;27586;51.124;4.182;2023-05-17T02:30:37;6.38;;;4.75;;
41903;SDS011;27586;51.124;4.182;2023-05-17T02:33:06;10.68;;;4.85;;
41903;SDS011;27586;51.124;4.182;2023-05-17T02:35:32;8.13;;;4.93;;
41903;SDS011;27586;51.124;4.182;2023-05-17T02:37:58;9.30;;;5.18;;
41903;SDS011;27586;51.124;4.182;2023-05-17T02:40:24;7.85;;;4.72;;
41903;SDS011;27586;51.124;4.182;2023-05-17T02:42:49;7.72;;;4.93;;
41903;SDS011;27586;51.124;4.182;2023-05-17T02:45:15;8.90;;;4.85;;
41903;SDS011;27586;51.124;4.182;2023-05-17T02:47:41;6.57;;;4.63;;
41903;SDS011;27586;51.124;4.182;2023-05-17T02:50:07;10.23;;;5.28;;
41903;SDS011;27586;51.124;4.182;2023-05-17T02:52:33;11.35;;;5.15;;
41903;SDS011;27586;51.124;4.182;2023-05-17T02:54:58;11.32;;;5.28;;
41903;SDS011;27586;51.124;4.182;2023-05-17T02:57:24;12.93;;;5.22;;
41903;SDS011;27586;51.124;4.182;2023-05-17T02:59:50;10.65;;;5.50;;
41903;SDS011;27586;51.124;4.182;2023-05-17T03:02:16;15.05;;;5.47;;
41903;SDS011;27586;51.124;4.182;2023-05-17T03:04:41;9.10;;;5.28;;
41903;SDS011;27586;51.124;4.182;2023-05-17T03:07:07;8.88;;;5.43;;
41903;SDS011;27586;51.124;4.182;2023-05-17T03:09:33;11.60;;;6.05;;
41903;SDS011;27586;51.124;4.182;2023-05-17T03:11:59;11.13;;;6.65;;
41903;SDS011;27586;51.124;4.182;2023-05-17T03:14:24;13.82;;;6.00;;
41903;SDS011;27586;51.124;4.182;2023-05-17T03:16:50;9.75;;;5.93;;
41903;SDS011;27586;51.124;4.182;2023-05-17T03:19:16;14.52;;;6.70;;
41903;SDS011;27586;51.124;4.182;2023-05-17T03:21:41;8.60;;;6.30;;
41903;SDS011;27586;51.124;4.182;2023-05-17T03:24:07;12.23;;;6.00;;
41903;SDS011;27586;51.124;4.182;2023-05-17T03:26:33;12.75;;;6.80;;
41903;SDS011;27586;51.124;4.182;2023-05-17T03:28:58;10.10;;;5.88;;
41903;SDS011;27586;51.124;4.182;2023-05-17T03:31:24;10.13;;;6.00;;
41903;SDS011;27586;51.124;4.182;2023-05-17T03:33:50;12.77;;;6.38;;
41903;SDS011;27586;51.124;4.182;2023-05-17T03:36:16;13.77;;;6.65;;
41903;SDS011;27586;51.124;4.182;2023-05-17T03:38:41;10.10;;;6.10;;
41903;SDS011;27586;51.124;4.182;2023-05-17T03:41:07;11.02;;;6.15;;
41903;SDS011;27586;51.124;4.182;2023-05-17T03:43:33;10.48;;;5.70;;
41903;SDS011;27586;51.124;4.182;2023-05-17T03:45:58;12.65;;;6.90;;
41903;SDS011;27586;51.124;4.182;2023-05-17T03:48:24;12.10;;;5.90;;
41903;SDS011;27586;51.124;4.182;2023-05-17T03:50:49;18.52;;;6.50;;
41903;SDS011;27586;51.124;4.182;2023-05-17T03:53:15;10.60;;;5.80;;
41903;SDS011;27586;51.124;4.182;2023-05-17T03:55:41;12.10;;;5.93;;
41903;SDS011;27586;51.124;4.182;2023-05-17T03:58:07;10.95;;;6.82;;
41903;SDS011;27586;51.124;4.182;2023-05-17T04:00:32;8.38;;;5.72;;
41903;SDS011;27586;51.124;4.182;2023-05-17T04:02:58;12.30;;;6.45;;
41903;SDS011;27586;51.124;4.182;2023-05-17T04:05:24;11.02;;;6.05;;
41903;SDS011;27586;51.124;4.182;2023-05-17T04:07:50;9.57;;;5.85;;
41903;SDS011;27586;51.124;4.182;2023-05-17T04:10:16;11.68;;;6.00;;
41903;SDS011;27586;51.124;4.182;2023-05-17T04:12:42;12.82;;;5.85;;
41903;SDS011;27586;51.124;4.182;2023-05-17T04:15:07;10.88;;;6.30;;
41903;SDS011;27586;51.124;4.182;2023-05-17T04:17:33;9.63;;;5.40;;
41903;SDS011;27586;51.124;4.182;2023-05-17T04:20:00;8.20;;;5.30;;
41903;SDS011;27586;51.124;4.182;2023-05-17T04:22:26;13.95;;;5.65;;
41903;SDS011;27586;51.124;4.182;2023-05-17T04:24:51;11.43;;;5.80;;
41903;SDS011;27586;51.124;4.182;2023-05-17T04:27:17;9.00;;;5.50;;
41903;SDS011;27586;51.124;4.182;2023-05-17T04:29:42;11.07;;;5.65;;
41903;SDS011;27586;51.124;4.182;2023-05-17T04:32:08;8.68;;;5.53;;
41903;SDS011;27586;51.124;4.182;2023-05-17T04:34:34;9.48;;;5.32;;
41903;SDS011;27586;51.124;4.182;2023-05-17T04:37:00;12.45;;;6.20;;
41903;SDS011;27586;51.124;4.182;2023-05-17T04:39:26;10.95;;;5.88;;
41903;SDS011;27586;51.124;4.182;2023-05-17T04:41:51;9.07;;;5.10;;
41903;SDS011;27586;51.124;4.182;2023-05-17T04:44:17;11.23;;;5.90;;
41903;SDS011;27586;51.124;4.182;2023-05-17T04:46:43;11.73;;;5.78;;
41903;SDS011;27586;51.124;4.182;2023-05-17T04:49:09;11.75;;;5.78;;
41903;SDS011;27586;51.124;4.182;2023-05-17T04:51:35;11.40;;;6.40;;
41903;SDS011;27586;51.124;4.182;2023-05-17T04:54:01;9.77;;;5.97;;
41903;SDS011;27586;51.124;4.182;2023-05-17T04:56:30;13.93;;;5.82;;
41903;SDS011;27586;51.124;4.182;2023-05-17T04:58:57;11.32;;;6.05;;
41903;SDS011;27586;51.124;4.182;2023-05-17T05:01:22;9.25;;;5.35;;
41903;SDS011;27586;51.124;4.182;2023-05-17T05:03:48;14.85;;;5.93;;
41903;SDS011;27586;51.124;4.182;2023-05-17T05:06:14;12.35;;;5.57;;
41903;SDS011;27586;51.124;4.182;2023-05-17T05:08:40;11.68;;;5.63;;
41903;SDS011;27586;51.124;4.182;2023-05-17T05:11:06;14.32;;;5.63;;
41903;SDS011;27586;51.124;4.182;2023-05-17T05:13:31;15.93;;;6.13;;
41903;SDS011;27586;51.124;4.182;2023-05-17T05:15:57;9.43;;;5.50;;
41903;SDS011;27586;51.124;4.182;2023-05-17T05:18:23;11.60;;;5.47;;
41903;SDS011;27586;51.124;4.182;2023-05-17T05:20:48;11.90;;;5.20;;
41903;SDS011;27586;51.124;4.182;2023-05-17T05:23:14;11.05;;;5.68;;
41903;SDS011;27586;51.124;4.182;2023-05-17T05:25:42;10.73;;;5.47;;
41903;SDS011;27586;51.124;4.182;2023-05-17T05:28:08;10.88;;;5.63;;
41903;SDS011;27586;51.124;4.182;2023-05-17T05:30:33;9.93;;;5.72;;
41903;SDS011;27586;51.124;4.182;2023-05-17T05:32:59;11.05;;;5.93;;
41903;SDS011;27586;51.124;4.182;2023-05-17T05:35:25;12.45;;;5.72;;
41903;SDS011;27586;51.124;4.182;2023-05-17T05:37:54;10.57;;;5.30;;
41903;SDS011;27586;51.124;4.182;2023-05-17T05:40:23;10.23;;;5.38;;
41903;SDS011;27586;51.124;4.182;2023-05-17T05:42:48;11.85;;;5.32;;
41903;SDS011;27586;51.124;4.182;2023-05-17T05:45:14;10.40;;;5.53;;
41903;SDS011;27586;51.124;4.182;2023-05-17T05:47:40;10.63;;;5.32;;
41903;SDS011;27586;51.124;4.182;2023-05-17T05:50:06;12.25;;;5.47;;
41903;SDS011;27586;51.124;4.182;2023-05-17T05:52:32;13.55;;;5.40;;
41903;SDS011;27586;51.124;4.182;2023-05-17T05:54:58;9.68;;;5.60;;
41903;SDS011;27586;51.124;4.182;2023-05-17T05:57:24;11.90;;;5.70;;
41903;SDS011;27586;51.124;4.182;2023-05-17T05:59:49;16.90;;;6.53;;
41903;SDS011;27586;51.124;4.182;2023-05-17T06:02:15;12.23;;;6.03;;
41903;SDS011;27586;51.124;4.182;2023-05-17T06:04:41;11.10;;;5.88;;
41903;SDS011;27586;51.124;4.182;2023-05-17T06:07:07;12.35;;;5.90;;
41903;SDS011;27586;51.124;4.182;2023-05-17T06:09:33;12.35;;;6.22;;
41903;SDS011;27586;51.124;4.182;2023-05-17T06:11:58;12.02;;;5.75;;
41903;SDS011;27586;51.124;4.182;2023-05-17T06:14:25;13.20;;;6.38;;
41903;SDS011;27586;51.124;4.182;2023-05-17T06:16:50;15.18;;;5.80;;
41903;SDS011;27586;51.124;4.182;2023-05-17T06:19:16;13.73;;;6.03;;
41903;SDS011;27586;51.124;4.182;2023-05-17T06:21:42;12.05;;;5.80;;
41903;SDS011;27586;51.124;4.182;2023-05-17T06:24:08;11.35;;;5.30;;
41903;SDS011;27586;51.124;4.182;2023-05-17T06:26:33;12.40;;;5.20;;
41903;SDS011;27586;51.124;4.182;2023-05-17T06:28:59;10.48;;;5.55;;
41903;SDS011;27586;51.124;4.182;2023-05-17T06:31:25;10.27;;;4.88;;
41903;SDS011;27586;51.124;4.182;2023-05-17T06:33:50;10.18;;;5.32;;
41903;SDS011;27586;51.124;4.182;2023-05-17T06:36:16;13.75;;;5.40;;
41903;SDS011;27586;51.124;4.182;2023-05-17T06:38:42;14.63;;;5.50;;
41903;SDS011;27586;51.124;4.182;2023-05-17T06:41:07;12.57;;;5.00;;
41903;SDS011;27586;51.124;4.182;2023-05-17T06:43:33;12.07;;;4.55;;
41903;SDS011;27586;51.124;4.182;2023-05-17T06:45:59;12.75;;;4.93;;
41903;SDS011;27586;51.124;4.182;2023-05-17T06:48:24;10.30;;;4.68;;
41903;SDS011;27586;51.124;4.182;2023-05-17T06:50:50;12.50;;;4.85;;
41903;SDS011;27586;51.124;4.182;2023-05-17T06:53:16;10.55;;;5.05;;
41903;SDS011;27586;51.124;4.182;2023-05-17T06:55:41;9.55;;;5.22;;
41903;SDS011;27586;51.124;4.182;2023-05-17T06:58:07;11.63;;;4.82;;
41903;SDS011;27586;51.124;4.182;2023-05-17T07:00:33;10.65;;;5.70;;
41903;SDS011;27586;51.124;4.182;2023-05-17T07:02:59;9.40;;;4.93;;
41903;SDS011;27586;51.124;4.182;2023-05-17T07:05:24;11.20;;;4.60;;
41903;SDS011;27586;51.124;4.182;2023-05-17T07:07:52;8.45;;;4.57;;
41903;SDS011;27586;51.124;4.182;2023-05-17T07:10:18;12.95;;;4.47;;
41903;SDS011;27586;51.124;4.182;2023-05-17T07:12:43;10.32;;;4.55;;
41903;SDS011;27586;51.124;4.182;2023-05-17T07:15:09;11.95;;;4.43;;
41903;SDS011;27586;51.124;4.182;2023-05-17T07:17:35;11.30;;;5.07;;
41903;SDS011;27586;51.124;4.182;2023-05-17T07:20:01;10.75;;;4.65;;
41903;SDS011;27586;51.124;4.182;2023-05-17T07:22:27;7.80;;;4.07;;
41903;SDS011;27586;51.124;4.182;2023-05-17T07:24:53;10.75;;;4.65;;
41903;SDS011;27586;51.124;4.182;2023-05-17T07:27:19;10.73;;;4.30;;
41903;SDS011;27586;51.124;4.182;2023-05-17T07:29:44;7.65;;;4.55;;
41903;SDS011;27586;51.124;4.182;2023-05-17T07:32:10;9.45;;;4.00;;
41903;SDS011;27586;51.124;4.182;2023-05-17T07:34:36;8.25;;;4.13;;
41903;SDS011;27586;51.124;4.182;2023-05-17T07:37:01;7.63;;;3.72;;
41903;SDS011;27586;51.124;4.182;2023-05-17T07:39:27;9.65;;;4.10;;
41903;SDS011;27586;51.124;4.182;2023-05-17T07:41:53;8.45;;;3.40;;
41903;SDS011;27586;51.124;4.182;2023-05-17T07:44:19;6.90;;;3.28;;
41903;SDS011;27586;51.124;4.182;2023-05-17T07:46:46;11.23;;;3.53;;
41903;SDS011;27586;51.124;4.182;2023-05-17T07:49:12;8.65;;;2.90;;
41903;SDS011;27586;51.124;4.182;2023-05-17T07:51:38;7.00;;;3.28;;
41903;SDS011;27586;51.124;4.182;2023-05-17T07:54:04;8.13;;;3.30;;
41903;SDS011;27586;51.124;4.182;2023-05-17T07:56:29;6.25;;;3.45;;
41903;SDS011;27586;51.124;4.182;2023-05-17T07:58:55;6.07;;;2.90;;
41903;SDS011;27586;51.124;4.182;2023-05-17T08:01:21;10.90;;;3.10;;
41903;SDS011;27586;51.124;4.182;2023-05-17T08:03:47;6.78;;;2.80;;
41903;SDS011;27586;51.124;4.182;2023-05-17T08:06:14;8.15;;;2.90;;
41903;SDS011;27586;51.124;4.182;2023-05-17T08:08:40;7.80;;;3.60;;
41903;SDS011;27586;51.124;4.182;2023-05-17T08:11:07;6.70;;;2.88;;
41903;SDS011;27586;51.124;4.182;2023-05-17T08:13:33;6.15;;;2.97;;
41903;SDS011;27586;51.124;4.182;2023-05-17T08:15:59;8.13;;;3.20;;
41903;SDS011;27586;51.124;4.182;2023-05-17T08:18:28;9.23;;;3.20;;
41903;SDS011;27586;51.124;4.182;2023-05-17T08:20:54;10.02;;;3.25;;
41903;SDS011;27586;51.124;4.182;2023-05-17T08:23:20;6.85;;;3.42;;
41903;SDS011;27586;51.124;4.182;2023-05-17T08:25:46;7.90;;;2.97;;
41903;SDS011;27586;51.124;4.182;2023-05-17T08:28:12;7.65;;;2.90;;
41903;SDS011;27586;51.124;4.182;2023-05-17T08:30:37;6.82;;;3.03;;
41903;SDS011;27586;51.124;4.182;2023-05-17T08:33:03;6.40;;;3.10;;
41903;SDS011;27586;51.124;4.182;2023-05-17T08:35:28;7.45;;;3.00;;
41903;SDS011;27586;51.124;4.182;2023-05-17T08:37:55;8.20;;;3.03;;
41903;SDS011;27586;51.124;4.182;2023-05-17T08:40:21;5.53;;;2.72;;
41903;SDS011;27586;51.124;4.182;2023-05-17T08:42:47;6.63;;;2.83;;
41903;SDS011;27586;51.124;4.182;2023-05-17T08:45:16;8.70;;;3.03;;
41903;SDS011;27586;51.124;4.182;2023-05-17T08:47:42;6.25;;;2.78;;
41903;SDS011;27586;51.124;4.182;2023-05-17T08:50:10;7.78;;;2.45;;
41903;SDS011;27586;51.124;4.182;2023-05-17T08:52:38;6.10;;;2.80;;
41903;SDS011;27586;51.124;4.182;2023-05-17T08:55:06;7.70;;;3.10;;
41903;SDS011;27586;51.124;4.182;2023-05-17T08:57:33;5.60;;;2.65;;
41903;SDS011;27586;51.124;4.182;2023-05-17T09:00:03;7.28;;;2.78;;
41903;SDS011;27586;51.124;4.182;2023-05-17T09:02:39;6.57;;;2.30;;
41903;SDS011;27586;51.124;4.182;2023-05-17T09:05:06;7.65;;;2.53;;
41903;SDS011;27586;51.124;4.182;2023-05-17T09:07:32;6.22;;;2.50;;
41903;SDS011;27586;51.124;4.182;2023-05-17T09:09:58;5.28;;;2.10;;
41903;SDS011;27586;51.124;4.182;2023-05-17T09:12:24;7.10;;;2.50;;
41903;SDS011;27586;51.124;4.182;2023-05-17T09:14:50;6.30;;;3.00;;
41903;SDS011;27586;51.124;4.182;2023-05-17T09:17:19;6.57;;;2.78;;
41903;SDS011;27586;51.124;4.182;2023-05-17T09:19:46;8.82;;;3.80;;
41903;SDS011;27586;51.124;4.182;2023-05-17T09:22:16;9.15;;;2.60;;
41903;SDS011;27586;51.124;4.182;2023-05-17T09:24:43;7.03;;;2.40;;
41903;SDS011;27586;51.124;4.182;2023-05-17T09:27:13;6.05;;;2.33;;
41903;SDS011;27586;51.124;4.182;2023-05-17T09:29:39;7.47;;;2.50;;
41903;SDS011;27586;51.124;4.182;2023-05-17T09:32:12;8.43;;;2.35;;
41903;SDS011;27586;51.124;4.182;2023-05-17T09:34:39;8.75;;;2.85;;
41903;SDS011;27586;51.124;4.182;2023-05-17T09:37:11;8.45;;;2.60;;
41903;SDS011;27586;51.124;4.182;2023-05-17T09:39:38;6.80;;;2.40;;
41903;SDS011;27586;51.124;4.182;2023-05-17T09:42:04;6.72;;;2.42;;
41903;SDS011;27586;51.124;4.182;2023-05-17T09:44:30;6.82;;;2.35;;
41903;SDS011;27586;51.124;4.182;2023-05-17T09:46:56;7.38;;;2.85;;
41903;SDS011;27586;51.124;4.182;2023-05-17T09:49:25;6.68;;;2.42;;
41903;SDS011;27586;51.124;4.182;2023-05-17T09:51:53;5.13;;;2.33;;
41903;SDS011;27586;51.124;4.182;2023-05-17T09:54:19;6.72;;;2.13;;
41903;SDS011;27586;51.124;4.182;2023-05-17T09:56:51;8.45;;;2.55;;
41903;SDS011;27586;51.124;4.182;2023-05-17T09:59:18;5.95;;;2.25;;
41903;SDS011;27586;51.124;4.182;2023-05-17T10:01:44;10.50;;;2.20;;
41903;SDS011;27586;51.124;4.182;2023-05-17T10:04:14;4.97;;;2.22;;
41903;SDS011;27586;51.124;4.182;2023-05-17T10:06:44;9.35;;;2.38;;
41903;SDS011;27586;51.124;4.182;2023-05-17T10:09:11;4.10;;;2.00;;
41903;SDS011;27586;51.124;4.182;2023-05-17T10:11:37;6.47;;;2.00;;
41903;SDS011;27586;51.124;4.182;2023-05-17T10:14:17;6.18;;;2.20;;
41903;SDS011;27586;51.124;4.182;2023-05-17T10:16:52;8.48;;;2.67;;
41903;SDS011;27586;51.124;4.182;2023-05-17T10:19:19;9.23;;;2.55;;
41903;SDS011;27586;51.124;4.182;2023-05-17T10:21:51;8.60;;;2.33;;
41903;SDS011;27586;51.124;4.182;2023-05-17T10:24:18;5.50;;;2.20;;
41903;SDS011;27586;51.124;4.182;2023-05-17T10:26:45;8.13;;;2.42;;
41903;SDS011;27586;51.124;4.182;2023-05-17T10:29:16;7.28;;;2.63;;
41903;SDS011;27586;51.124;4.182;2023-05-17T10:31:44;8.10;;;2.55;;
41903;SDS011;27586;51.124;4.182;2023-05-17T10:34:11;6.13;;;2.00;;
41903;SDS011;27586;51.124;4.182;2023-05-17T10:36:39;6.50;;;2.20;;
41903;SDS011;27586;51.124;4.182;2023-05-17T10:39:07;7.55;;;1.98;;
41903;SDS011;27586;51.124;4.182;2023-05-17T10:41:33;9.25;;;2.55;;
41903;SDS011;27586;51.124;4.182;2023-05-17T10:44:02;9.80;;;2.30;;
41903;SDS011;27586;51.124;4.182;2023-05-17T10:46:29;6.88;;;2.22;;
41903;SDS011;27586;51.124;4.182;2023-05-17T10:48:56;7.95;;;2.75;;
41903;SDS011;27586;51.124;4.182;2023-05-17T10:51:31;6.43;;;2.25;;
41903;SDS011;27586;51.124;4.182;2023-05-17T10:54:07;6.00;;;2.15;;
41903;SDS011;27586;51.124;4.182;2023-05-17T10:56:34;8.98;;;2.45;;
41903;SDS011;27586;51.124;4.182;2023-05-17T10:59:18;9.93;;;2.50;;
41903;SDS011;27586;51.124;4.182;2023-05-17T11:07:21;7.45;;;2.67;;
41903;SDS011;27586;51.124;4.182;2023-05-17T11:15:14;7.05;;;2.33;;
41903;SDS011;27586;51.124;4.182;2023-05-17T11:20:49;3.95;;;1.67;;
41903;SDS011;27586;51.124;4.182;2023-05-17T11:25:39;8.02;;;1.80;;
41903;SDS011;27586;51.124;4.182;2023-05-17T11:28:06;7.20;;;2.03;;
41903;SDS011;27586;51.124;4.182;2023-05-17T11:30:33;5.15;;;2.28;;
41903;SDS011;27586;51.124;4.182;2023-05-17T11:33:04;8.13;;;1.85;;
41903;SDS011;27586;51.124;4.182;2023-05-17T11:35:31;6.85;;;2.45;;
41903;SDS011;27586;51.124;4.182;2023-05-17T11:38:17;8.10;;;2.67;;
41903;SDS011;27586;51.124;4.182;2023-05-17T11:40:46;4.07;;;1.90;;
41903;SDS011;27586;51.124;4.182;2023-05-17T11:45:47;5.28;;;1.80;;
41903;SDS011;27586;51.124;4.182;2023-05-17T11:48:17;5.03;;;1.90;;
41903;SDS011;27586;51.124;4.182;2023-05-17T11:50:46;4.38;;;1.92;;
41903;SDS011;27586;51.124;4.182;2023-05-17T11:53:13;4.78;;;2.10;;
41903;SDS011;27586;51.124;4.182;2023-05-17T11:55:41;4.93;;;1.90;;
41903;SDS011;27586;51.124;4.182;2023-05-17T11:58:08;4.97;;;1.98;;
41903;SDS011;27586;51.124;4.182;2023-05-17T12:00:38;5.05;;;1.77;;
41903;SDS011;27586;51.124;4.182;2023-05-17T12:03:18;5.05;;;1.63;;
41903;SDS011;27586;51.124;4.182;2023-05-17T12:06:00;6.50;;;1.98;;
41903;SDS011;27586;51.124;4.182;2023-05-17T12:08:27;5.38;;;1.88;;
41903;SDS011;27586;51.124;4.182;2023-05-17T12:10:54;6.82;;;2.15;;
41903;SDS011;27586;51.124;4.182;2023-05-17T12:13:23;4.45;;;1.70;;
41903;SDS011;27586;51.124;4.182;2023-05-17T12:15:55;8.52;;;2.33;;
41903;SDS011;27586;51.124;4.182;2023-05-17T12:18:32;4.57;;;1.95;;
41903;SDS011;27586;51.124;4.182;2023-05-17T12:21:00;3.70;;;1.67;;
41903;SDS011;27586;51.124;4.182;2023-05-17T12:23:30;7.72;;;1.80;;
41903;SDS011;27586;51.124;4.182;2023-05-17T12:26:02;5.80;;;1.90;;
41903;SDS011;27586;51.124;4.182;2023-05-17T12:28:36;6.80;;;2.17;;
41903;SDS011;27586;51.124;4.182;2023-05-17T12:31:05;3.67;;;1.70;;
41903;SDS011;27586;51.124;4.182;2023-05-17T12:33:37;4.75;;;1.75;;
41903;SDS011;27586;51.124;4.182;2023-05-17T12:36:05;3.83;;;1.88;;
41903;SDS011;27586;51.124;4.182;2023-05-17T12:38:36;4.03;;;1.63;;
41903;SDS011;27586;51.124;4.182;2023-05-17T12:41:04;6.65;;;2.10;;
41903;SDS011;27586;51.124;4.182;2023-05-17T12:43:34;5.35;;;2.00;;
41903;SDS011;27586;51.124;4.182;2023-05-17T12:46:01;4.47;;;1.67;;
41903;SDS011;27586;51.124;4.182;2023-05-17T12:48:30;4.63;;;1.50;;
41903;SDS011;27586;51.124;4.182;2023-05-17T12:51:13;5.38;;;1.98;;
41903;SDS011;27586;51.124;4.182;2023-05-17T12:53:43;4.95;;;2.00;;
41903;SDS011;27586;51.124;4.182;2023-05-17T12:56:15;5.80;;;1.90;;
41903;SDS011;27586;51.124;4.182;2023-05-17T13:01:44;4.90;;;1.90;;
41903;SDS011;27586;51.124;4.182;2023-05-17T13:04:15;7.35;;;2.22;;
41903;SDS011;27586;51.124;4.182;2023-05-17T13:09:09;4.88;;;1.80;;
41903;SDS011;27586;51.124;4.182;2023-05-17T13:11:35;4.43;;;1.80;;
41903;SDS011;27586;51.124;4.182;2023-05-17T13:14:05;5.05;;;1.92;;
41903;SDS011;27586;51.124;4.182;2023-05-17T13:16:32;6.13;;;1.80;;
41903;SDS011;27586;51.124;4.182;2023-05-17T13:19:01;3.90;;;1.90;;
41903;SDS011;27586;51.124;4.182;2023-05-17T13:21:35;5.43;;;1.77;;
41903;SDS011;27586;51.124;4.182;2023-05-17T13:24:00;4.05;;;1.73;;
41903;SDS011;27586;51.124;4.182;2023-05-17T13:26:26;6.75;;;1.65;;
41903;SDS011;27586;51.124;4.182;2023-05-17T13:28:52;6.25;;;2.28;;
41903;SDS011;27586;51.124;4.182;2023-05-17T13:31:17;3.95;;;1.70;;
41903;SDS011;27586;51.124;4.182;2023-05-17T13:33:43;5.22;;;1.83;;
41903;SDS011;27586;51.124;4.182;2023-05-17T13:36:09;6.82;;;2.38;;
41903;SDS011;27586;51.124;4.182;2023-05-17T13:38:36;3.97;;;1.80;;
41903;SDS011;27586;51.124;4.182;2023-05-17T13:41:01;2.85;;;1.83;;
41903;SDS011;27586;51.124;4.182;2023-05-17T13:43:27;7.13;;;1.85;;
41903;SDS011;27586;51.124;4.182;2023-05-17T13:45:53;3.15;;;1.50;;
41903;SDS011;27586;51.124;4.182;2023-05-17T13:48:22;3.85;;;1.80;;
41903;SDS011;27586;51.124;4.182;2023-05-17T13:50:48;5.97;;;1.95;;
41903;SDS011;27586;51.124;4.182;2023-05-17T13:53:14;6.65;;;1.75;;
41903;SDS011;27586;51.124;4.182;2023-05-17T13:55:40;4.75;;;1.77;;
41903;SDS011;27586;51.124;4.182;2023-05-17T13:58:06;4.78;;;1.50;;
41903;SDS011;27586;51.124;4.182;2023-05-17T14:00:31;4.25;;;1.67;;
41903;SDS011;27586;51.124;4.182;2023-05-17T14:02:57;4.13;;;1.50;;
41903;SDS011;27586;51.124;4.182;2023-05-17T14:05:23;5.70;;;1.75;;
41903;SDS011;27586;51.124;4.182;2023-05-17T14:07:48;3.75;;;1.60;;
41903;SDS011;27586;51.124;4.182;2023-05-17T14:10:15;5.00;;;1.85;;
41903;SDS011;27586;51.124;4.182;2023-05-17T14:12:41;4.97;;;1.80;;
41903;SDS011;27586;51.124;4.182;2023-05-17T14:15:08;4.80;;;1.67;;
41903;SDS011;27586;51.124;4.182;2023-05-17T14:17:34;5.68;;;1.50;;
41903;SDS011;27586;51.124;4.182;2023-05-17T14:20:00;4.68;;;2.03;;
41903;SDS011;27586;51.124;4.182;2023-05-17T14:22:27;5.80;;;1.92;;
41903;SDS011;27586;51.124;4.182;2023-05-17T14:24:53;4.50;;;1.77;;
41903;SDS011;27586;51.124;4.182;2023-05-17T14:27:19;4.03;;;1.73;;
41903;SDS011;27586;51.124;4.182;2023-05-17T14:29:44;3.47;;;1.52;;
41903;SDS011;27586;51.124;4.182;2023-05-17T14:32:10;5.63;;;1.80;;
41903;SDS011;27586;51.124;4.182;2023-05-17T14:34:38;6.55;;;1.90;;
41903;SDS011;27586;51.124;4.182;2023-05-17T14:37:03;3.75;;;1.65;;
41903;SDS011;27586;51.124;4.182;2023-05-17T14:39:29;4.45;;;1.55;;
41903;SDS011;27586;51.124;4.182;2023-05-17T14:41:55;6.63;;;2.05;;
41903;SDS011;27586;51.124;4.182;2023-05-17T14:44:20;4.05;;;1.50;;
41903;SDS011;27586;51.124;4.182;2023-05-17T14:46:46;4.22;;;1.50;;
41903;SDS011;27586;51.124;4.182;2023-05-17T14:49:12;4.78;;;2.00;;
41903;SDS011;27586;51.124;4.182;2023-05-17T14:51:37;4.90;;;1.85;;
41903;SDS011;27586;51.124;4.182;2023-05-17T14:54:03;4.03;;;1.55;;
41903;SDS011;27586;51.124;4.182;2023-05-17T14:56:29;2.83;;;1.60;;
41903;SDS011;27586;51.124;4.182;2023-05-17T14:58:56;4.43;;;1.63;;
41903;SDS011;27586;51.124;4.182;2023-05-17T15:01:22;5.53;;;1.70;;
41903;SDS011;27586;51.124;4.182;2023-05-17T15:03:47;6.68;;;1.85;;
41903;SDS011;27586;51.124;4.182;2023-05-17T15:06:14;5.07;;;1.65;;
41903;SDS011;27586;51.124;4.182;2023-05-17T15:08:39;4.38;;;1.80;;
41903;SDS011;27586;51.124;4.182;2023-05-17T15:11:05;3.85;;;1.67;;
41903;SDS011;27586;51.124;4.182;2023-05-17T15:13:31;6.70;;;2.10;;
41903;SDS011;27586;51.124;4.182;2023-05-17T15:15:56;5.65;;;1.98;;
41903;SDS011;27586;51.124;4.182;2023-05-17T15:18:22;3.55;;;1.60;;